sensor_id;sensor_type;location;lat;lon;timestamp;pressure;altitude;pressure_sealevel;temperature;humidity
34197;BME280;36594;45.192;5.722;2023-01-27T00:02:11;99088.31;;;22.12;31.68
34197;BME280;36594;45.192;5.722;2023-01-27T00:05:00;99085.84;;;22.13;31.63
34197;BME280;36594;45.192;5.722;2023-01-27T00:07:49;99083.48;;;22.17;31.61
34197;BME280;36594;45.192;5.722;2023-01-27T00:10:37;99085.06;;;22.15;31.61
34197;BME280;36594;45.192;5.722;2023-01-27T00:13:26;99088.95;;;22.17;31.62
34197;BME280;36594;45.192;5.722;2023-01-27T00:16:14;99086.49;;;22.18;31.60
34197;BME280;36594;45.192;5.722;2023-01-27T00:19:03;99085.77;;;22.22;31.57
34197;BME280;36594;45.192;5.722;2023-01-27T00:21:51;99090.23;;;22.26;31.54
34197;BME280;36594;45.192;5.722;2023-01-27T00:24:58;99084.23;;;22.26;31.49
34197;BME280;36594;45.192;5.722;2023-01-27T00:27:47;99087.77;;;22.27;31.47
34197;BME280;36594;45.192;5.722;2023-01-27T00:30:35;99082.08;;;22.28;31.47
34197;BME280;36594;45.192;5.722;2023-01-27T00:33:24;99087.30;;;22.30;31.45
34197;BME280;36594;45.192;5.722;2023-01-27T00:36:13;99087.88;;;22.32;31.42
34197;BME280;36594;45.192;5.722;2023-01-27T00:39:02;99087.35;;;22.32;31.41
34197;BME280;36594;45.192;5.722;2023-01-27T00:41:50;99091.20;;;22.34;31.41
34197;BME280;36594;45.192;5.722;2023-01-27T00:44:39;99091.20;;;22.34;31.42
34197;BME280;36594;45.192;5.722;2023-01-27T00:47:29;99093.72;;;22.35;31.47
34197;BME280;36594;45.192;5.722;2023-01-27T00:50:17;99091.52;;;22.35;31.51
34197;BME280;36594;45.192;5.722;2023-01-27T00:53:06;99084.95;;;22.36;31.53
34197;BME280;36594;45.192;5.722;2023-01-27T00:55:55;99089.05;;;22.36;31.57
34197;BME280;36594;45.192;5.722;2023-01-27T00:58:45;99093.16;;;22.36;31.56
34197;BME280;36594;45.192;5.722;2023-01-27T01:01:34;99092.88;;;22.35;31.60
34197;BME280;36594;45.192;5.722;2023-01-27T01:04:22;99075.67;;;22.37;31.65
34197;BME280;36594;45.192;5.722;2023-01-27T01:07:10;99080.37;;;22.39;31.65
34197;BME280;36594;45.192;5.722;2023-01-27T01:09:59;99079.84;;;22.39;31.71
34197;BME280;36594;45.192;5.722;2023-01-27T01:12:47;99072.99;;;22.39;31.75
34197;BME280;36594;45.192;5.722;2023-01-27T01:15:39;99069.36;;;22.36;31.74
34197;BME280;36594;45.192;5.722;2023-01-27T01:18:28;99075.73;;;22.39;31.79
34197;BME280;36594;45.192;5.722;2023-01-27T01:21:17;99069.14;;;22.38;31.79
34197;BME280;36594;45.192;5.722;2023-01-27T01:24:06;99070.00;;;22.41;31.75
34197;BME280;36594;45.192;5.722;2023-01-27T01:26:54;99081.36;;;22.47;31.73
34197;BME280;36594;45.192;5.722;2023-01-27T01:29:43;99066.05;;;22.48;31.79
34197;BME280;36594;45.192;5.722;2023-01-27T01:32:31;99078.73;;;22.52;31.90
34197;BME280;36594;45.192;5.722;2023-01-27T01:35:21;99072.95;;;22.51;31.91
34197;BME280;36594;45.192;5.722;2023-01-27T01:38:12;99070.27;;;22.53;31.86
34197;BME280;36594;45.192;5.722;2023-01-27T01:41:00;99073.84;;;22.54;32.33
34197;BME280;36594;45.192;5.722;2023-01-27T01:43:49;99063.88;;;22.62;32.07
34197;BME280;36594;45.192;5.722;2023-01-27T01:46:38;99068.39;;;22.68;31.97
34197;BME280;36594;45.192;5.722;2023-01-27T01:49:29;99061.39;;;22.75;31.68
34197;BME280;36594;45.192;5.722;2023-01-27T01:52:19;99060.81;;;22.73;31.54
34197;BME280;36594;45.192;5.722;2023-01-27T01:55:08;99067.08;;;22.71;31.45
34197;BME280;36594;45.192;5.722;2023-01-27T01:57:56;99066.03;;;22.74;31.42
34197;BME280;36594;45.192;5.722;2023-01-27T02:00:45;99064.97;;;22.75;31.39
34197;BME280;36594;45.192;5.722;2023-01-27T02:03:36;99060.55;;;22.74;31.35
34197;BME280;36594;45.192;5.722;2023-01-27T02:06:26;99063.59;;;22.75;31.37
34197;BME280;36594;45.192;5.722;2023-01-27T02:09:17;99058.66;;;22.75;31.37
34197;BME280;36594;45.192;5.722;2023-01-27T02:12:07;99052.59;;;22.73;31.42
34197;BME280;36594;45.192;5.722;2023-01-27T02:14:58;99048.19;;;22.72;31.38
34197;BME280;36594;45.192;5.722;2023-01-27T02:17:47;99050.09;;;22.71;31.39
34197;BME280;36594;45.192;5.722;2023-01-27T02:20:42;99052.55;;;22.70;31.36
34197;BME280;36594;45.192;5.722;2023-01-27T02:23:42;99040.44;;;22.66;31.42
34197;BME280;36594;45.192;5.722;2023-01-27T02:26:32;99046.39;;;22.63;31.49
34197;BME280;36594;45.192;5.722;2023-01-27T02:29:21;99045.02;;;22.63;31.45
34197;BME280;36594;45.192;5.722;2023-01-27T02:32:25;99045.81;;;22.61;31.50
34197;BME280;36594;45.192;5.722;2023-01-27T02:35:12;99047.78;;;22.51;31.51
34197;BME280;36594;45.192;5.722;2023-01-27T02:38:00;99047.14;;;22.33;31.69
34197;BME280;36594;45.192;5.722;2023-01-27T02:40:52;99046.34;;;22.21;31.85
34197;BME280;36594;45.192;5.722;2023-01-27T02:43:43;99038.03;;;22.16;31.94
34197;BME280;36594;45.192;5.722;2023-01-27T02:46:31;99048.28;;;22.09;32.01
34197;BME280;36594;45.192;5.722;2023-01-27T02:49:21;99035.92;;;22.06;32.07
34197;BME280;36594;45.192;5.722;2023-01-27T02:52:10;99037.80;;;22.03;32.11
34197;BME280;36594;45.192;5.722;2023-01-27T02:54:59;99029.22;;;21.99;32.16
34197;BME280;36594;45.192;5.722;2023-01-27T02:57:49;99031.06;;;21.96;32.16
34197;BME280;36594;45.192;5.722;2023-01-27T03:00:46;99020.63;;;21.93;32.21
34197;BME280;36594;45.192;5.722;2023-01-27T03:03:34;99026.10;;;21.93;32.23
34197;BME280;36594;45.192;5.722;2023-01-27T03:06:25;99023.59;;;21.92;32.26
34197;BME280;36594;45.192;5.722;2023-01-27T03:09:14;99015.91;;;21.91;32.25
34197;BME280;36594;45.192;5.722;2023-01-27T03:12:02;99006.27;;;21.86;32.28
34197;BME280;36594;45.192;5.722;2023-01-27T03:15:10;99013.09;;;21.86;32.31
34197;BME280;36594;45.192;5.722;2023-01-27T03:18:16;99004.28;;;21.84;32.36
34197;BME280;36594;45.192;5.722;2023-01-27T03:21:06;99003.61;;;21.80;32.37
34197;BME280;36594;45.192;5.722;2023-01-27T03:23:54;98998.81;;;21.84;32.34
34197;BME280;36594;45.192;5.722;2023-01-27T03:26:43;99002.30;;;21.82;32.32
34197;BME280;36594;45.192;5.722;2023-01-27T03:29:33;98997.08;;;21.81;32.33
34197;BME280;36594;45.192;5.722;2023-01-27T03:32:39;98998.97;;;21.80;32.35
34197;BME280;36594;45.192;5.722;2023-01-27T03:35:47;99009.32;;;21.78;32.34
34197;BME280;36594;45.192;5.722;2023-01-27T03:38:37;99007.06;;;21.75;32.39
34197;BME280;36594;45.192;5.722;2023-01-27T03:41:43;99005.69;;;21.75;32.37
34197;BME280;36594;45.192;5.722;2023-01-27T03:44:50;99003.22;;;21.74;32.39
34197;BME280;36594;45.192;5.722;2023-01-27T03:47:56;99005.89;;;21.71;32.40
34197;BME280;36594;45.192;5.722;2023-01-27T03:50:45;99003.99;;;21.72;32.43
34197;BME280;36594;45.192;5.722;2023-01-27T03:53:36;99016.57;;;21.73;32.40
34197;BME280;36594;45.192;5.722;2023-01-27T03:56:25;98997.22;;;21.74;32.37
34197;BME280;36594;45.192;5.722;2023-01-27T03:59:14;99008.20;;;21.77;32.34
34197;BME280;36594;45.192;5.722;2023-01-27T04:02:03;99001.06;;;21.76;32.32
34197;BME280;36594;45.192;5.722;2023-01-27T04:05:09;98997.22;;;21.74;32.21
34197;BME280;36594;45.192;5.722;2023-01-27T04:08:16;98992.22;;;21.71;32.27
34197;BME280;36594;45.192;5.722;2023-01-27T04:11:04;98992.16;;;21.69;32.32
34197;BME280;36594;45.192;5.722;2023-01-27T04:14:12;98987.28;;;21.71;32.31
34197;BME280;36594;45.192;5.722;2023-01-27T04:17:06;98986.42;;;21.68;32.33
34197;BME280;36594;45.192;5.722;2023-01-27T04:19:55;98988.59;;;21.68;32.36
34197;BME280;36594;45.192;5.722;2023-01-27T04:22:43;98993.78;;;21.67;32.36
34197;BME280;36594;45.192;5.722;2023-01-27T04:25:31;98995.98;;;21.68;32.31
34197;BME280;36594;45.192;5.722;2023-01-27T04:28:21;98993.78;;;21.67;32.33
34197;BME280;36594;45.192;5.722;2023-01-27T04:31:10;98993.06;;;21.72;32.31
34197;BME280;36594;45.192;5.722;2023-01-27T04:33:58;98996.58;;;21.70;32.31
34197;BME280;36594;45.192;5.722;2023-01-27T04:36:47;98993.31;;;21.70;32.33
34197;BME280;36594;45.192;5.722;2023-01-27T04:39:36;98993.31;;;21.70;32.32
34197;BME280;36594;45.192;5.722;2023-01-27T04:42:24;98990.27;;;21.69;32.28
34197;BME280;36594;45.192;5.722;2023-01-27T04:45:13;98993.84;;;21.70;32.29
34197;BME280;36594;45.192;5.722;2023-01-27T04:48:02;98988.65;;;21.71;32.29
34197;BME280;36594;45.192;5.722;2023-01-27T04:50:51;98990.27;;;21.69;32.31
34197;BME280;36594;45.192;5.722;2023-01-27T04:53:39;98982.38;;;21.70;32.26
34197;BME280;36594;45.192;5.722;2023-01-27T04:56:34;98993.00;;;21.69;32.33
34197;BME280;36594;45.192;5.722;2023-01-27T04:59:23;98984.49;;;21.68;32.30
34197;BME280;36594;45.192;5.722;2023-01-27T05:02:11;98992.11;;;21.66;32.34
34197;BME280;36594;45.192;5.722;2023-01-27T05:04:59;98989.91;;;21.66;32.35
34197;BME280;36594;45.192;5.722;2023-01-27T05:07:49;98994.84;;;21.66;32.35
34197;BME280;36594;45.192;5.722;2023-01-27T05:10:38;98993.78;;;21.67;32.39
34197;BME280;36594;45.192;5.722;2023-01-27T05:13:26;98989.69;;;21.67;32.34
34197;BME280;36594;45.192;5.722;2023-01-27T05:16:19;98983.32;;;21.64;32.36
34197;BME280;36594;45.192;5.722;2023-01-27T05:19:09;98986.36;;;21.65;32.40
34197;BME280;36594;45.192;5.722;2023-01-27T05:21:57;98982.27;;;21.65;32.38
34197;BME280;36594;45.192;5.722;2023-01-27T05:24:46;98989.09;;;21.65;32.40
34197;BME280;36594;45.192;5.722;2023-01-27T05:27:35;98992.11;;;21.66;32.41
34197;BME280;36594;45.192;5.722;2023-01-27T05:30:23;98995.93;;;21.65;32.43
34197;BME280;36594;45.192;5.722;2023-01-27T05:33:11;98991.52;;;21.64;32.43
34197;BME280;36594;45.192;5.722;2023-01-27T05:36:01;98990.46;;;21.65;32.43
34197;BME280;36594;45.192;5.722;2023-01-27T05:38:50;98989.38;;;21.66;32.43
34197;BME280;36594;45.192;5.722;2023-01-27T05:41:39;98991.52;;;21.64;32.44
34197;BME280;36594;45.192;5.722;2023-01-27T05:44:27;98998.10;;;21.66;32.47
34197;BME280;36594;45.192;5.722;2023-01-27T05:47:15;98996.98;;;21.64;32.44
34197;BME280;36594;45.192;5.722;2023-01-27T05:50:04;98996.66;;;21.61;32.48
34197;BME280;36594;45.192;5.722;2023-01-27T05:52:52;98999.97;;;21.63;32.48
34197;BME280;36594;45.192;5.722;2023-01-27T05:55:42;98995.03;;;21.62;32.48
34197;BME280;36594;45.192;5.722;2023-01-27T05:58:31;98997.45;;;21.61;32.46
34197;BME280;36594;45.192;5.722;2023-01-27T06:01:22;98995.28;;;21.61;32.47
34197;BME280;36594;45.192;5.722;2023-01-27T06:04:11;99002.45;;;21.64;32.48
34197;BME280;36594;45.192;5.722;2023-01-27T06:07:00;99002.45;;;21.64;32.52
34197;BME280;36594;45.192;5.722;2023-01-27T06:09:48;99003.77;;;21.62;32.51
34197;BME280;36594;45.192;5.722;2023-01-27T06:12:37;98999.19;;;21.65;32.48
34197;BME280;36594;45.192;5.722;2023-01-27T06:15:25;99003.70;;;21.59;32.51
34197;BME280;36594;45.192;5.722;2023-01-27T06:18:15;99003.70;;;21.59;32.53
34197;BME280;36594;45.192;5.722;2023-01-27T06:21:04;99009.76;;;21.61;32.51
34197;BME280;36594;45.192;5.722;2023-01-27T06:23:53;99008.11;;;21.60;32.49
34197;BME280;36594;45.192;5.722;2023-01-27T06:26:42;99003.29;;;21.65;32.53
34197;BME280;36594;45.192;5.722;2023-01-27T06:29:30;99010.84;;;21.60;32.47
34197;BME280;36594;45.192;5.722;2023-01-27T06:32:19;99016.59;;;21.61;32.45
34197;BME280;36594;45.192;5.722;2023-01-27T06:35:07;99010.53;;;21.59;32.50
34197;BME280;36594;45.192;5.722;2023-01-27T06:38:00;99015.41;;;21.57;32.54
34197;BME280;36594;45.192;5.722;2023-01-27T06:40:49;99007.80;;;21.59;32.51
34197;BME280;36594;45.192;5.722;2023-01-27T06:43:37;99006.16;;;21.58;32.54
34197;BME280;36594;45.192;5.722;2023-01-27T06:46:26;99004.54;;;21.60;32.49
34197;BME280;36594;45.192;5.722;2023-01-27T06:49:14;99009.36;;;21.55;32.52
34197;BME280;36594;45.192;5.722;2023-01-27T06:52:03;99001.16;;;21.55;32.58
34197;BME280;36594;45.192;5.722;2023-01-27T06:54:51;99011.26;;;21.55;32.58
34197;BME280;36594;45.192;5.722;2023-01-27T06:57:39;99011.24;;;21.66;32.41
34197;BME280;36594;45.192;5.722;2023-01-27T07:00:28;99008.85;;;21.81;32.16
34197;BME280;36594;45.192;5.722;2023-01-27T07:03:17;99034.66;;;21.85;31.21
34197;BME280;36594;45.192;5.722;2023-01-27T07:06:05;99014.47;;;21.86;31.20
34197;BME280;36594;45.192;5.722;2023-01-27T07:08:54;99014.07;;;21.94;31.09
34197;BME280;36594;45.192;5.722;2023-01-27T07:11:42;99022.05;;;21.96;31.35
34197;BME280;36594;45.192;5.722;2023-01-27T07:14:31;99026.96;;;21.96;31.37
34197;BME280;36594;45.192;5.722;2023-01-27T07:17:20;99023.17;;;21.97;31.37
34197;BME280;36594;45.192;5.722;2023-01-27T07:20:11;99027.55;;;21.98;31.29
34197;BME280;36594;45.192;5.722;2023-01-27T07:23:01;99020.44;;;21.97;31.32
34197;BME280;36594;45.192;5.722;2023-01-27T07:25:50;99029.42;;;21.95;31.29
34197;BME280;36594;45.192;5.722;2023-01-27T07:28:38;99032.05;;;21.90;31.34
34197;BME280;36594;45.192;5.722;2023-01-27T07:31:27;99030.20;;;21.93;31.27
34197;BME280;36594;45.192;5.722;2023-01-27T07:34:15;99041.14;;;21.93;31.32
34197;BME280;36594;45.192;5.722;2023-01-27T07:37:04;99027.63;;;21.89;31.35
34197;BME280;36594;45.192;5.722;2023-01-27T07:39:52;99046.97;;;21.85;31.38
34197;BME280;36594;45.192;5.722;2023-01-27T07:42:40;99042.55;;;21.84;31.51
34197;BME280;36594;45.192;5.722;2023-01-27T07:45:30;99031.67;;;21.87;31.54
34197;BME280;36594;45.192;5.722;2023-01-27T07:48:19;99033.83;;;21.85;31.62
34197;BME280;36594;45.192;5.722;2023-01-27T07:51:12;99037.40;;;21.85;31.70
34197;BME280;36594;45.192;5.722;2023-01-27T07:54:01;99046.66;;;21.84;31.83
34197;BME280;36594;45.192;5.722;2023-01-27T07:56:49;99045.12;;;21.88;31.87
34197;BME280;36594;45.192;5.722;2023-01-27T07:59:37;99047.86;;;21.88;31.95
34197;BME280;36594;45.192;5.722;2023-01-27T08:02:26;99051.97;;;21.88;31.95
34197;BME280;36594;45.192;5.722;2023-01-27T08:05:14;99050.81;;;21.87;31.99
34197;BME280;36594;45.192;5.722;2023-01-27T08:08:03;99051.66;;;21.87;32.07
34197;BME280;36594;45.192;5.722;2023-01-27T08:10:51;99052.75;;;21.86;32.13
34197;BME280;36594;45.192;5.722;2023-01-27T08:13:44;99053.33;;;21.88;32.12
34197;BME280;36594;45.192;5.722;2023-01-27T08:16:32;99057.96;;;21.88;32.16
34197;BME280;36594;45.192;5.722;2023-01-27T08:19:20;99051.13;;;21.88;32.23
34197;BME280;36594;45.192;5.722;2023-01-27T08:22:10;99053.33;;;21.88;32.25
34197;BME280;36594;45.192;5.722;2023-01-27T08:24:58;99056.70;;;21.93;32.20
34197;BME280;36594;45.192;5.722;2023-01-27T08:27:51;99056.66;;;21.90;32.17
34197;BME280;36594;45.192;5.722;2023-01-27T08:30:40;99059.44;;;21.93;32.20
34197;BME280;36594;45.192;5.722;2023-01-27T08:33:29;99056.18;;;21.93;32.25
34197;BME280;36594;45.192;5.722;2023-01-27T08:36:18;99062.38;;;21.89;32.30
34197;BME280;36594;45.192;5.722;2023-01-27T08:39:08;99060.11;;;21.86;32.35
34197;BME280;36594;45.192;5.722;2023-01-27T08:41:57;99064.27;;;21.88;32.30
34197;BME280;36594;45.192;5.722;2023-01-27T08:44:45;99060.45;;;21.89;32.33
34197;BME280;36594;45.192;5.722;2023-01-27T08:47:33;99059.64;;;21.89;32.33
34197;BME280;36594;45.192;5.722;2023-01-27T08:50:22;99058.96;;;21.84;32.30
34197;BME280;36594;45.192;5.722;2023-01-27T08:53:10;99071.73;;;21.81;32.36
34197;BME280;36594;45.192;5.722;2023-01-27T08:56:07;99077.20;;;21.81;32.42
34197;BME280;36594;45.192;5.722;2023-01-27T08:58:56;99070.06;;;21.80;32.45
34197;BME280;36594;45.192;5.722;2023-01-27T09:01:44;99070.73;;;21.85;32.36
34197;BME280;36594;45.192;5.722;2023-01-27T09:04:33;99060.02;;;21.83;32.34
34197;BME280;36594;45.192;5.722;2023-01-27T09:07:24;99065.17;;;21.82;32.38
34197;BME280;36594;45.192;5.722;2023-01-27T09:10:13;99064.43;;;21.84;32.34
34197;BME280;36594;45.192;5.722;2023-01-27T09:13:02;99066.27;;;21.81;32.38
34197;BME280;36594;45.192;5.722;2023-01-27T09:15:51;99067.47;;;21.85;32.31
34197;BME280;36594;45.192;5.722;2023-01-27T09:18:40;99073.38;;;21.82;32.32
34197;BME280;36594;45.192;5.722;2023-01-27T09:21:28;99076.95;;;21.83;32.55
34197;BME280;36594;45.192;5.722;2023-01-27T09:24:17;99075.31;;;21.82;33.09
34197;BME280;36594;45.192;5.722;2023-01-27T09:27:06;99073.88;;;21.79;33.37
34197;BME280;36594;45.192;5.722;2023-01-27T09:29:55;99082.08;;;21.79;33.75
34197;BME280;36594;45.192;5.722;2023-01-27T09:32:43;99081.25;;;21.79;33.84
34197;BME280;36594;45.192;5.722;2023-01-27T09:35:35;99084.31;;;21.82;33.84
34197;BME280;36594;45.192;5.722;2023-01-27T09:38:25;99072.85;;;21.83;33.87
34197;BME280;36594;45.192;5.722;2023-01-27T09:47:46;99081.77;;;21.78;34.49
34197;BME280;36594;45.192;5.722;2023-01-27T09:50:37;99082.55;;;21.76;34.50
34197;BME280;36594;45.192;5.722;2023-01-27T09:53:49;99091.06;;;21.77;34.86
34197;BME280;36594;45.192;5.722;2023-01-27T09:56:45;99091.06;;;21.77;34.86
34197;BME280;36594;45.192;5.722;2023-01-27T10:00:22;99085.75;;;21.73;34.64
34197;BME280;36594;45.192;5.722;2023-01-27T10:05:37;99097.47;;;21.71;34.75
34197;BME280;36594;45.192;5.722;2023-01-27T10:24:35;99099.23;;;21.66;34.94
34197;BME280;36594;45.192;5.722;2023-01-27T10:27:22;99101.38;;;21.64;35.06
34197;BME280;36594;45.192;5.722;2023-01-27T10:30:30;99104.95;;;21.64;34.98
34197;BME280;36594;45.192;5.722;2023-01-27T10:33:19;99105.80;;;21.65;34.93
34197;BME280;36594;45.192;5.722;2023-01-27T10:36:21;99102.22;;;21.64;34.97
34197;BME280;36594;45.192;5.722;2023-01-27T10:42:16;99100.27;;;21.62;34.93
34197;BME280;36594;45.192;5.722;2023-01-27T10:48:14;99098.84;;;21.60;34.81
34197;BME280;36594;45.192;5.722;2023-01-27T10:54:08;99098.59;;;21.61;34.67
34197;BME280;36594;45.192;5.722;2023-01-27T10:57:05;99101.10;;;21.63;34.72
34197;BME280;36594;45.192;5.722;2023-01-27T10:59:51;99104.95;;;21.64;34.60
34197;BME280;36594;45.192;5.722;2023-01-27T11:05:37;99092.41;;;21.66;34.68
34197;BME280;36594;45.192;5.722;2023-01-27T11:08:30;99099.20;;;21.63;34.78
34197;BME280;36594;45.192;5.722;2023-01-27T11:11:20;99096.69;;;21.62;34.74
34197;BME280;36594;45.192;5.722;2023-01-27T11:14:32;99092.59;;;21.62;34.71
34197;BME280;36594;45.192;5.722;2023-01-27T11:17:41;99100.45;;;21.58;34.68
34197;BME280;36594;45.192;5.722;2023-01-27T11:20:32;99099.09;;;21.58;34.72
34197;BME280;36594;45.192;5.722;2023-01-27T11:23:37;99095.14;;;21.54;34.77
34197;BME280;36594;45.192;5.722;2023-01-27T11:29:25;99106.13;;;21.57;34.54
34197;BME280;36594;45.192;5.722;2023-01-27T11:32:40;99102.34;;;21.58;34.50
34197;BME280;36594;45.192;5.722;2023-01-27T11:35:27;99109.70;;;21.57;34.44
34197;BME280;36594;45.192;5.722;2023-01-27T11:38:21;99104.77;;;21.57;34.42
34197;BME280;36594;45.192;5.722;2023-01-27T11:41:10;99095.39;;;21.53;34.45
34197;BME280;36594;45.192;5.722;2023-01-27T11:44:05;99102.88;;;21.57;34.48
34197;BME280;36594;45.192;5.722;2023-01-27T11:46:53;99094.67;;;21.57;34.42
34197;BME280;36594;45.192;5.722;2023-01-27T11:49:45;99099.67;;;21.60;34.38
34197;BME280;36594;45.192;5.722;2023-01-27T11:52:35;99091.41;;;21.58;34.40
34197;BME280;36594;45.192;5.722;2023-01-27T11:55:26;99088.95;;;21.59;34.36
34197;BME280;36594;45.192;5.722;2023-01-27T11:59:07;99087.91;;;21.60;34.34
34197;BME280;36594;45.192;5.722;2023-01-27T12:01:20;99080.23;;;21.59;34.29
34197;BME280;36594;45.192;5.722;2023-01-27T12:04:19;99082.62;;;21.56;34.18
34197;BME280;36594;45.192;5.722;2023-01-27T12:07:16;99081.84;;;21.58;34.18
34197;BME280;36594;45.192;5.722;2023-01-27T12:10:41;99075.20;;;21.54;34.10
34197;BME280;36594;45.192;5.722;2023-01-27T12:13:16;99070.27;;;21.53;34.10
34197;BME280;36594;45.192;5.722;2023-01-27T12:16:05;99070.27;;;21.53;34.08
34197;BME280;36594;45.192;5.722;2023-01-27T12:18:58;99066.41;;;21.52;33.87
34197;BME280;36594;45.192;5.722;2023-01-27T12:21:48;99063.68;;;21.52;34.13
34197;BME280;36594;45.192;5.722;2023-01-27T12:24:39;99055.48;;;21.52;34.19
34197;BME280;36594;45.192;5.722;2023-01-27T12:27:30;99050.30;;;21.53;34.28
34197;BME280;36594;45.192;5.722;2023-01-27T12:30:22;99054.39;;;21.53;34.18
34197;BME280;36594;45.192;5.722;2023-01-27T12:33:18;99048.40;;;21.53;34.12
34197;BME280;36594;45.192;5.722;2023-01-27T12:36:09;99054.92;;;21.52;34.17
34197;BME280;36594;45.192;5.722;2023-01-27T12:39:02;99050.55;;;21.51;34.10
34197;BME280;36594;45.192;5.722;2023-01-27T12:41:46;99051.47;;;21.57;34.05
34197;BME280;36594;45.192;5.722;2023-01-27T12:44:42;99049.64;;;21.60;33.90
34197;BME280;36594;45.192;5.722;2023-01-27T12:47:32;99059.73;;;21.59;33.83
34197;BME280;36594;45.192;5.722;2023-01-27T12:50:22;99051.41;;;21.54;33.92
34197;BME280;36594;45.192;5.722;2023-01-27T12:53:22;99064.02;;;21.55;33.84
34197;BME280;36594;45.192;5.722;2023-01-27T12:56:19;99058.25;;;21.54;33.74
34197;BME280;36594;45.192;5.722;2023-01-27T12:59:18;99057.72;;;21.55;33.61
34197;BME280;36594;45.192;5.722;2023-01-27T13:02:15;99047.63;;;21.55;33.53
34197;BME280;36594;45.192;5.722;2023-01-27T13:05:04;99057.50;;;21.56;33.47
34197;BME280;36594;45.192;5.722;2023-01-27T13:07:54;99050.16;;;21.59;33.40
34197;BME280;36594;45.192;5.722;2023-01-27T13:10:51;99049.05;;;21.58;33.34
34197;BME280;36594;45.192;5.722;2023-01-27T13:13:48;99050.48;;;21.60;33.27
34197;BME280;36594;45.192;5.722;2023-01-27T13:16:37;99048.80;;;21.59;33.23
34197;BME280;36594;45.192;5.722;2023-01-27T13:19:36;99045.01;;;21.60;33.18
34197;BME280;36594;45.192;5.722;2023-01-27T13:22:24;99047.44;;;21.59;33.10
34197;BME280;36594;45.192;5.722;2023-01-27T13:25:21;99044.17;;;21.60;33.08
34197;BME280;36594;45.192;5.722;2023-01-27T13:28:17;99050.75;;;21.61;33.02
34197;BME280;36594;45.192;5.722;2023-01-27T13:31:07;99054.33;;;21.62;32.96
34197;BME280;36594;45.192;5.722;2023-01-27T13:34:45;99056.78;;;21.61;32.94
34197;BME280;36594;45.192;5.722;2023-01-27T13:36:51;99054.05;;;21.61;32.91
34197;BME280;36594;45.192;5.722;2023-01-27T13:40:05;99065.52;;;21.60;32.84
34197;BME280;36594;45.192;5.722;2023-01-27T13:43:01;99061.41;;;21.60;32.80
34197;BME280;36594;45.192;5.722;2023-01-27T13:46:03;99057.19;;;21.55;32.79
34197;BME280;36594;45.192;5.722;2023-01-27T13:48:53;99061.04;;;21.57;32.73
34197;BME280;36594;45.192;5.722;2023-01-27T13:51:41;99064.61;;;21.57;32.73
34197;BME280;36594;45.192;5.722;2023-01-27T13:54:30;99065.98;;;21.57;32.69
34197;BME280;36594;45.192;5.722;2023-01-27T13:57:28;99058.62;;;21.58;32.65
34197;BME280;36594;45.192;5.722;2023-01-27T14:00:19;99068.77;;;21.60;32.61
34197;BME280;36594;45.192;5.722;2023-01-27T14:12:46;99078.46;;;21.53;32.52
34197;BME280;36594;45.192;5.722;2023-01-27T14:15:48;99074.05;;;21.52;32.52
34197;BME280;36594;45.192;5.722;2023-01-27T14:18:54;99075.42;;;21.52;32.50
34197;BME280;36594;45.192;5.722;2023-01-27T14:21:50;99081.44;;;21.52;32.44
34197;BME280;36594;45.192;5.722;2023-01-27T14:27:45;99081.72;;;21.53;32.41
34197;BME280;36594;45.192;5.722;2023-01-27T14:30:41;99082.56;;;21.53;32.38
34197;BME280;36594;45.192;5.722;2023-01-27T14:37:02;99078.15;;;21.52;32.34
34197;BME280;36594;45.192;5.722;2023-01-27T14:52:01;99083.55;;;21.50;32.24
34197;BME280;36594;45.192;5.722;2023-01-27T14:58:32;99081.97;;;21.51;32.17
34197;BME280;36594;45.192;5.722;2023-01-27T15:01:22;99079.17;;;21.49;32.13
34197;BME280;36594;45.192;5.722;2023-01-27T15:04:21;99081.31;;;21.47;32.14
34197;BME280;36594;45.192;5.722;2023-01-27T15:07:25;99077.50;;;21.48;32.12
34197;BME280;36594;45.192;5.722;2023-01-27T15:10:30;99091.47;;;21.49;32.10
34197;BME280;36594;45.192;5.722;2023-01-27T15:16:44;99089.20;;;21.46;32.08
34197;BME280;36594;45.192;5.722;2023-01-27T15:19:45;99096.28;;;21.44;32.03
34197;BME280;36594;45.192;5.722;2023-01-27T15:23:03;99088.86;;;21.42;32.03
34197;BME280;36594;45.192;5.722;2023-01-27T15:25:53;99096.56;;;21.45;32.03
34197;BME280;36594;45.192;5.722;2023-01-27T15:28:42;99100.91;;;21.44;32.01
34197;BME280;36594;45.192;5.722;2023-01-27T15:31:31;99100.38;;;21.44;31.97
34197;BME280;36594;45.192;5.722;2023-01-27T15:34:21;99109.70;;;21.46;31.91
34197;BME280;36594;45.192;5.722;2023-01-27T15:37:12;99098.83;;;21.48;31.90
34197;BME280;36594;45.192;5.722;2023-01-27T15:40:12;99100.20;;;21.48;31.85
34197;BME280;36594;45.192;5.722;2023-01-27T15:43:03;99104.89;;;21.50;31.81
34197;BME280;36594;45.192;5.722;2023-01-27T15:45:56;99113.02;;;21.48;31.80
34197;BME280;36594;45.192;5.722;2023-01-27T15:48:45;99110.60;;;21.49;31.78
34197;BME280;36594;45.192;5.722;2023-01-27T15:51:35;99115.54;;;21.49;31.76
34197;BME280;36594;45.192;5.722;2023-01-27T15:54:26;99115.54;;;21.49;31.75
34197;BME280;36594;45.192;5.722;2023-01-27T15:57:30;99117.44;;;21.49;31.75
34197;BME280;36594;45.192;5.722;2023-01-27T16:00:37;99117.13;;;21.48;31.71
34197;BME280;36594;45.192;5.722;2023-01-27T16:03:39;99110.29;;;21.48;31.70
34197;BME280;36594;45.192;5.722;2023-01-27T16:06:29;99120.10;;;21.46;31.69
34197;BME280;36594;45.192;5.722;2023-01-27T16:09:28;99119.20;;;21.43;31.71
34197;BME280;36594;45.192;5.722;2023-01-27T16:12:36;99123.36;;;21.46;31.67
34197;BME280;36594;45.192;5.722;2023-01-27T16:15:32;99119.79;;;21.45;31.66
34197;BME280;36594;45.192;5.722;2023-01-27T16:18:26;99124.91;;;21.42;31.67
34197;BME280;36594;45.192;5.722;2023-01-27T16:25:09;99132.58;;;21.42;31.63
34197;BME280;36594;45.192;5.722;2023-01-27T16:28:02;99140.16;;;21.40;31.65
34197;BME280;36594;45.192;5.722;2023-01-27T16:31:18;99133.32;;;21.40;31.61